Silifke, Turkey
Current Conditions -  °F | °C
As of 8:50 PM on Friday 28 Nov 2014 (Local Time) from LTAF Reporting Station
Haze Haze  
Wind Chill: 52°   Ceiling: Unl
Heat Index: 52°   Visibility: 2.5mi
Dew Point: 45°   Wind: 3mph
Humidity: 76%   Direction: 350°N
Pressure: 30.24"   Gusts: NA
Location:  36.37°N, 33.93°E
Report Text: LTAF 281850Z 35003KT 4000 1600S BR SCT036 11/07 Q1024 NOSIG
Loading
Personal Weather Stations






























Interactive Weather Map New forecast layout! Learn more

10-Day Weather Forecast

Advertisements
Track Severe Weather on mobile